createdAt,value
2019-05-22T00:00:00.029Z,15.33
2019-05-22T00:02:31.041Z,15.33
2019-05-22T00:05:20.770Z,16.97
2019-05-22T00:07:51.039Z,19.60
2019-05-22T00:10:27.097Z,16.67
2019-05-22T00:12:58.519Z,16.97
2019-05-22T00:15:30.297Z,20.40
2019-05-22T00:18:02.894Z,21.23
2019-05-22T00:20:33.624Z,19.50
2019-05-22T00:23:10.600Z,17.70
2019-05-22T00:25:40.985Z,21.13
2019-05-22T00:28:10.433Z,21.03
2019-05-22T00:30:42.030Z,24.13
2019-05-22T00:33:12.352Z,24.10
2019-05-22T00:35:44.743Z,23.53
2019-05-22T00:38:17.137Z,21.13
2019-05-22T00:40:52.644Z,25.13
2019-05-22T00:43:30.271Z,26.53
2019-05-22T00:46:03.251Z,25.97
2019-05-22T00:48:34.501Z,26.80
2019-05-22T00:51:12.288Z,24.40
2019-05-22T00:53:43.353Z,24.93
2019-05-22T00:56:17.843Z,25.47
2019-05-22T00:58:53.852Z,24.57
2019-05-22T01:01:27.740Z,26.17
2019-05-22T01:03:58.274Z,24.07
2019-05-22T01:06:30.477Z,26.43
2019-05-22T01:09:04.098Z,24.53
2019-05-22T01:11:33.711Z,22.97
2019-05-22T01:14:07.392Z,24.77
2019-05-22T01:16:37.260Z,24.90
2019-05-22T01:19:07.674Z,24.83
2019-05-22T01:21:38.266Z,20.90
2019-05-22T01:24:12.434Z,23.23
2019-05-22T01:26:43.675Z,20.68
2019-05-22T01:29:13.778Z,24.13
2019-05-22T01:31:45.463Z,22.93
2019-05-22T01:34:16.485Z,24.73
2019-05-22T01:36:48.015Z,27.33
2019-05-22T01:39:39.744Z,23.10
2019-05-22T01:42:14.291Z,20.07
2019-05-22T01:44:59.884Z,22.50
2019-05-22T01:47:28.908Z,19.53
2019-05-22T01:50:00.598Z,19.20
2019-05-22T01:52:30.504Z,19.50
2019-05-22T02:14:58.905Z,21.07
2019-05-22T02:17:33.930Z,20.20
2019-05-22T02:20:06.738Z,21.43
2019-05-22T02:22:38.710Z,21.77
2019-05-22T02:25:09.963Z,20.80
2019-05-22T02:27:41.183Z,22.23
2019-05-22T02:30:13.507Z,21.33
2019-05-22T02:32:43.122Z,22.13
2019-05-22T02:35:13.550Z,18.40
2019-05-22T02:37:42.927Z,22.00
2019-05-22T02:40:25.900Z,21.67
2019-05-22T02:42:56.200Z,21.17
2019-05-22T02:45:26.415Z,17.77
2019-05-22T02:47:58.208Z,18.80
2019-05-22T02:50:29.559Z,21.43
2019-05-22T02:53:01.610Z,20.43
2019-05-22T02:55:31.538Z,17.83
2019-05-22T02:58:01.830Z,21.83
2019-05-22T03:00:44.859Z,20.57
2019-05-22T03:03:15.664Z,16.50
2019-05-22T03:05:45.676Z,18.17
2019-05-22T03:08:15.348Z,17.40
2019-05-22T03:10:46.629Z,18.37
2019-05-22T03:13:17.006Z,16.07
2019-05-22T03:15:46.922Z,15.03
2019-05-22T03:18:19.682Z,14.97
2019-05-22T03:20:49.671Z,18.27
2019-05-22T03:23:31.273Z,16.17
2019-05-22T03:26:01.932Z,18.57
2019-05-22T03:28:33.776Z,13.90
2019-05-22T03:31:05.671Z,26.20
2019-05-22T03:33:35.809Z,14.70
2019-05-22T03:36:12.047Z,20.77
2019-05-22T03:38:42.492Z,16.80
2019-05-22T03:41:13.647Z,13.83
2019-05-22T03:43:46.160Z,21.93
2019-05-22T03:46:40.333Z,15.07
2019-05-22T03:49:29.277Z,16.90
2019-05-22T03:51:49.342Z,15.00
2019-05-22T03:54:19.443Z,18.60
2019-05-22T03:56:50.134Z,18.33
2019-05-22T03:59:19.931Z,14.63
2019-05-22T04:01:49.306Z,13.20
2019-05-22T04:04:23.362Z,14.13
2019-05-22T04:06:56.811Z,15.53
2019-05-22T04:09:26.745Z,13.67
2019-05-22T04:11:56.848Z,12.00
2019-05-22T04:14:35.726Z,13.23
2019-05-22T04:17:07.235Z,12.30
2019-05-22T04:19:48.301Z,10.60
2019-05-22T04:22:09.543Z,12.87
2019-05-22T04:24:41.417Z,11.13
2019-05-22T04:27:12.470Z,8.97
2019-05-22T04:29:42.982Z,8.13
2019-05-22T04:32:15.997Z,8.67
2019-05-22T04:34:46.394Z,8.93
2019-05-22T04:37:17.988Z,9.70
2019-05-22T04:39:49.365Z,7.93
2019-05-22T04:42:20.606Z,15.25
2019-05-22T04:45:13.702Z,8.30
2019-05-22T04:47:57.297Z,84.50
2019-05-22T04:50:29.080Z,8.50
2019-05-22T04:53:00.524Z,9.47
2019-05-22T04:55:31.155Z,9.13
2019-05-22T04:58:07.008Z,7.30
2019-05-22T05:00:36.890Z,7.40
2019-05-22T05:03:06.603Z,9.30
2019-05-22T05:05:50.795Z,12.67
2019-05-22T05:08:20.258Z,8.73
2019-05-22T05:10:51.560Z,11.77
2019-05-22T05:13:21.853Z,11.80
2019-05-22T05:15:51.268Z,8.43
2019-05-22T05:18:21.254Z,7.90
2019-05-22T05:20:50.682Z,11.78
2019-05-22T05:23:20.467Z,10.50
2019-05-22T05:25:50.372Z,14.07
2019-05-22T05:28:20.371Z,13.80
2019-05-22T05:30:50.603Z,20.00
2019-05-22T05:33:20.358Z,16.70
2019-05-22T05:35:51.423Z,18.40
2019-05-22T05:38:34.528Z,18.50
2019-05-22T05:41:04.706Z,21.50
2019-05-22T05:43:34.208Z,20.30
2019-05-22T05:46:04.158Z,22.97
2019-05-22T05:48:35.086Z,19.43
2019-05-22T05:51:12.329Z,21.53
2019-05-22T05:54:06.756Z,22.20
2019-05-22T05:56:39.053Z,22.93
2019-05-22T05:59:09.879Z,20.97
2019-05-22T06:01:41.159Z,20.93
2019-05-22T06:04:11.819Z,21.43
2019-05-22T06:06:48.775Z,19.97
2019-05-22T06:09:21.301Z,20.60
2019-05-22T06:11:56.660Z,20.87
2019-05-22T06:14:33.143Z,18.53
2019-05-22T06:17:26.669Z,18.73
2019-05-22T06:20:07.521Z,19.27
2019-05-22T06:22:37.788Z,19.03
2019-05-22T06:25:08.534Z,14.63
2019-05-22T06:27:45.085Z,15.47
2019-05-22T06:30:19.552Z,23.70
2019-05-22T06:33:12.458Z,14.10
2019-05-22T06:35:44.401Z,14.93
2019-05-22T06:38:38.422Z,18.67
2019-05-22T06:41:08.629Z,14.13
2019-05-22T06:43:45.294Z,14.63
2019-05-22T06:46:18.121Z,19.37
2019-05-22T06:48:48.216Z,14.30
2019-05-22T06:51:19.611Z,15.80
2019-05-22T06:53:49.062Z,19.63
2019-05-22T06:56:18.482Z,21.00
2019-05-22T06:58:48.407Z,18.97
2019-05-22T07:01:17.948Z,22.33
2019-05-22T07:03:47.342Z,19.97
2019-05-22T07:06:16.739Z,23.13
2019-05-22T07:08:46.173Z,20.37
2019-05-22T07:11:15.621Z,24.20
2019-05-22T07:13:45.888Z,28.67
2019-05-22T07:16:15.432Z,23.50
2019-05-22T07:18:45.677Z,21.03
2019-05-22T07:21:15.403Z,21.73
2019-05-22T07:23:46.478Z,20.27
2019-05-22T07:26:16.130Z,30.50
2019-05-22T07:28:47.409Z,19.20
2019-05-22T07:31:17.457Z,42.27
2019-05-22T07:33:48.359Z,30.57
2019-05-22T07:36:19.371Z,43.40
2019-05-22T07:38:49.189Z,64.03
2019-05-22T07:41:18.622Z,131.73
2019-05-22T07:43:48.151Z,94.93
2019-05-22T07:46:17.966Z,78.33
2019-05-22T07:48:47.743Z,24.07
2019-05-22T07:51:19.125Z,77.40
2019-05-22T07:53:49.052Z,25.87
2019-05-22T07:56:19.913Z,93.63
2019-05-22T07:58:49.775Z,36.47
2019-05-22T08:01:20.350Z,88.20
2019-05-22T08:03:50.907Z,36.13
2019-05-22T08:06:21.490Z,42.17
2019-05-22T08:08:52.888Z,74.33
2019-05-22T08:11:25.079Z,29.47
2019-05-22T08:13:57.096Z,15.03
2019-05-22T08:16:28.437Z,31.50
2019-05-22T08:18:58.311Z,16.27
2019-05-22T08:21:28.335Z,15.90
2019-05-22T08:23:58.833Z,32.87
2019-05-22T08:26:30.888Z,17.33
2019-05-22T08:29:02.281Z,28.37
2019-05-22T08:31:34.345Z,22.70
2019-05-22T08:34:05.298Z,14.43
2019-05-22T08:36:38.697Z,21.33
2019-05-22T08:39:10.023Z,16.10
2019-05-22T08:41:43.471Z,14.23
2019-05-22T08:44:17.321Z,16.43
2019-05-22T08:46:46.807Z,11.30
2019-05-22T08:49:17.177Z,13.03
2019-05-22T08:51:47.091Z,14.40
2019-05-22T08:54:17.938Z,15.57
2019-05-22T08:56:50.554Z,15.60
2019-05-22T08:59:20.851Z,15.17
2019-05-22T09:01:50.615Z,17.93
2019-05-22T09:04:21.436Z,23.60
2019-05-22T09:06:51.012Z,19.37
2019-05-22T09:09:21.254Z,21.67
2019-05-22T09:11:50.727Z,18.63
2019-05-22T09:14:20.361Z,23.20
2019-05-22T09:16:49.971Z,20.17
2019-05-22T09:19:19.429Z,23.77
2019-05-22T09:21:49.046Z,24.23
2019-05-22T09:24:19.660Z,22.30
2019-05-22T09:26:49.578Z,23.23
2019-05-22T09:29:19.188Z,21.33
2019-05-22T09:31:48.696Z,23.47
2019-05-22T09:34:18.710Z,24.57
2019-05-22T09:36:48.390Z,23.50
2019-05-22T09:39:18.398Z,22.67
2019-05-22T09:41:48.145Z,30.23
2019-05-22T09:44:17.887Z,50.97
2019-05-22T09:46:47.332Z,32.83
2019-05-22T09:49:17.304Z,32.83
2019-05-22T09:51:46.672Z,48.48
2019-05-22T09:54:16.205Z,87.63
2019-05-22T09:56:45.594Z,59.83
2019-05-22T09:59:15.029Z,31.33
2019-05-22T10:01:44.405Z,66.90
2019-05-22T10:04:13.885Z,95.63
2019-05-22T10:06:43.388Z,45.03
2019-05-22T10:09:12.785Z,39.80
2019-05-22T10:11:43.033Z,28.77
2019-05-22T10:14:12.477Z,39.03
2019-05-22T10:16:42.224Z,41.30
2019-05-22T10:19:12.517Z,25.53
2019-05-22T10:21:42.425Z,31.80
2019-05-22T10:24:12.131Z,40.83
2019-05-22T10:26:41.738Z,30.07
2019-05-22T10:29:11.888Z,25.23
2019-05-22T10:31:41.738Z,25.60
2019-05-22T10:34:11.190Z,28.80
2019-05-22T10:36:43.096Z,32.07
2019-05-22T10:39:12.129Z,30.17
2019-05-22T10:41:41.970Z,32.50
2019-05-22T10:44:11.573Z,31.60
2019-05-22T10:46:41.094Z,33.40
2019-05-22T10:49:10.741Z,31.63
2019-05-22T10:51:40.557Z,28.73
2019-05-22T10:54:10.369Z,37.33
2019-05-22T10:56:39.917Z,30.57
2019-05-22T10:59:09.356Z,37.87
2019-05-22T11:01:38.967Z,32.90
2019-05-22T11:04:08.869Z,26.37
2019-05-22T11:06:38.791Z,37.67
2019-05-22T11:09:09.876Z,27.57
2019-05-22T11:11:41.087Z,26.10
2019-05-22T11:14:11.386Z,27.13
2019-05-22T11:16:40.951Z,30.27
2019-05-22T11:19:10.390Z,27.10
2019-05-22T11:21:39.879Z,25.43
2019-05-22T11:24:09.704Z,44.50
2019-05-22T11:26:39.261Z,48.67
2019-05-22T11:29:09.380Z,88.80
2019-05-22T11:31:39.294Z,33.70
2019-05-22T11:34:08.831Z,28.37
2019-05-22T11:36:38.375Z,42.20
2019-05-22T11:39:12.837Z,30.40
2019-05-22T11:41:43.036Z,21.80
2019-05-22T11:44:13.226Z,41.17
2019-05-22T11:46:42.776Z,23.13
2019-05-22T11:49:13.158Z,43.37
2019-05-22T11:51:42.929Z,35.13
2019-05-22T11:54:12.297Z,22.73
2019-05-22T11:56:41.763Z,25.77
2019-05-22T11:59:11.970Z,29.03
2019-05-22T12:01:41.488Z,27.23
2019-05-22T12:04:12.984Z,19.50
2019-05-22T12:06:42.700Z,28.13
2019-05-22T12:09:13.666Z,23.93
2019-05-22T12:11:44.009Z,27.43
2019-05-22T12:14:14.382Z,23.83
2019-05-22T12:16:44.993Z,27.83
2019-05-22T12:19:15.801Z,22.90
2019-05-22T12:21:45.349Z,25.87
2019-05-22T12:24:27.113Z,19.97
2019-05-22T12:26:46.218Z,18.30
2019-05-22T12:29:17.495Z,21.93
2019-05-22T12:31:47.753Z,15.40
2019-05-22T12:34:18.095Z,16.67
2019-05-22T12:36:51.203Z,18.20
2019-05-22T12:39:22.747Z,20.20
2019-05-22T12:41:53.714Z,17.50
2019-05-22T12:44:24.287Z,16.50
2019-05-22T12:46:53.937Z,18.77
2019-05-22T12:49:25.257Z,17.00
2019-05-22T12:51:54.700Z,15.03
2019-05-22T12:54:24.479Z,17.20
2019-05-22T12:56:54.514Z,14.90
2019-05-22T12:59:26.076Z,13.77
2019-05-22T13:01:58.062Z,17.40
2019-05-22T13:04:30.780Z,16.93
2019-05-22T13:07:01.358Z,13.67
2019-05-22T13:09:31.575Z,12.10
2019-05-22T13:12:02.000Z,12.63
2019-05-22T13:14:31.438Z,17.43
2019-05-22T13:17:02.430Z,21.33
2019-05-22T13:19:35.102Z,15.47
2019-05-22T13:22:08.324Z,21.07
2019-05-22T13:24:38.361Z,14.60
2019-05-22T13:27:11.857Z,15.90
2019-05-22T13:29:42.171Z,18.07
2019-05-22T13:32:13.727Z,17.53
2019-05-22T13:34:43.943Z,15.67
2019-05-22T13:37:14.194Z,16.73
2019-05-22T13:39:43.938Z,17.30
2019-05-22T13:42:13.693Z,19.10
2019-05-22T13:44:44.155Z,25.50
2019-05-22T13:47:14.210Z,15.93
2019-05-22T13:49:45.032Z,19.03
2019-05-22T13:52:19.415Z,20.23
2019-05-22T13:54:49.402Z,20.40
2019-05-22T13:57:19.594Z,16.97
2019-05-22T13:59:49.185Z,15.77
2019-05-22T14:02:18.559Z,23.60
2019-05-22T14:04:48.023Z,19.10
2019-05-22T14:07:18.636Z,16.93
2019-05-22T14:09:48.007Z,17.03
2019-05-22T14:12:17.492Z,17.20
2019-05-22T14:14:47.027Z,28.13
2019-05-22T14:17:16.649Z,18.63
2019-05-22T14:19:47.122Z,16.03
2019-05-22T14:22:16.630Z,16.77
2019-05-22T14:24:46.012Z,21.30
2019-05-22T14:27:15.416Z,17.67
2019-05-22T14:29:45.562Z,16.67
2019-05-22T14:32:16.389Z,18.97
2019-05-22T14:34:45.934Z,16.20
2019-05-22T14:37:15.990Z,14.17
2019-05-22T14:39:45.844Z,14.67
2019-05-22T14:42:15.638Z,24.17
2019-05-22T14:44:45.234Z,14.73
2019-05-22T14:47:16.445Z,16.73
2019-05-22T14:49:46.002Z,14.43
2019-05-22T14:52:17.178Z,14.73
2019-05-22T14:54:48.562Z,16.63
2019-05-22T14:57:18.957Z,19.63
2019-05-22T14:59:48.748Z,14.93
2019-05-22T15:02:18.844Z,15.00
2019-05-22T15:04:48.772Z,22.97
2019-05-22T15:07:21.037Z,14.00
2019-05-22T15:09:50.491Z,16.70
2019-05-22T15:12:19.996Z,14.30
2019-05-22T15:14:49.819Z,15.23
2019-05-22T15:17:31.597Z,13.03
2019-05-22T15:19:50.924Z,14.50
2019-05-22T15:22:20.848Z,14.57
2019-05-22T15:24:50.875Z,15.37
2019-05-22T15:27:20.400Z,14.30
2019-05-22T15:29:49.775Z,14.87
2019-05-22T15:32:19.758Z,14.87
2019-05-22T15:34:49.577Z,13.87
2019-05-22T15:37:21.182Z,16.00
2019-05-22T15:39:51.600Z,14.97
2019-05-22T15:42:43.812Z,12.50
2019-05-22T15:45:29.782Z,18.50
2019-05-22T15:48:02.734Z,17.03
2019-05-22T15:50:35.092Z,12.43
2019-05-22T15:53:12.676Z,17.20
2019-05-22T15:55:44.026Z,13.13
2019-05-22T15:58:17.179Z,16.37
2019-05-22T16:00:52.615Z,14.10
2019-05-22T16:03:24.145Z,12.37
2019-05-22T16:05:55.696Z,15.50
2019-05-22T16:08:25.512Z,14.77
2019-05-22T16:10:59.970Z,13.40
2019-05-22T16:13:32.882Z,12.70
2019-05-22T16:16:06.342Z,13.43
2019-05-22T16:18:38.600Z,14.20
2019-05-22T16:21:11.479Z,16.57
2019-05-22T16:23:41.808Z,11.93
2019-05-22T16:26:12.570Z,11.63
2019-05-22T16:28:44.976Z,11.60
2019-05-22T16:31:16.471Z,10.67
2019-05-22T16:33:49.897Z,10.87
2019-05-22T16:36:20.967Z,10.87
2019-05-22T16:38:51.824Z,9.47
2019-05-22T16:41:23.072Z,10.70
2019-05-22T16:43:52.838Z,11.33
2019-05-22T16:46:23.385Z,10.23
2019-05-22T16:48:53.761Z,11.83
2019-05-22T16:51:24.939Z,10.13
2019-05-22T16:54:04.482Z,12.63
2019-05-22T16:56:35.195Z,10.25
2019-05-22T16:59:09.359Z,11.60
2019-05-22T17:01:57.647Z,10.13
2019-05-22T17:04:16.690Z,9.30
2019-05-22T17:06:46.572Z,11.20
2019-05-22T17:09:16.774Z,9.70
2019-05-22T17:11:47.420Z,18.77
2019-05-22T17:14:19.674Z,11.07
2019-05-22T17:16:51.768Z,9.70
2019-05-22T17:19:27.082Z,11.13
2019-05-22T17:21:53.855Z,20.97
2019-05-22T17:24:23.940Z,10.67
2019-05-22T17:26:54.716Z,12.03
2019-05-22T17:29:24.377Z,18.27
2019-05-22T17:31:55.379Z,10.98
2019-05-22T17:34:31.820Z,13.90
2019-05-22T17:37:06.278Z,11.47
2019-05-22T17:39:38.154Z,11.13
2019-05-22T17:42:12.486Z,11.67
2019-05-22T17:44:46.037Z,11.60
2019-05-22T17:47:17.938Z,9.33
2019-05-22T17:49:49.120Z,10.40
2019-05-22T17:52:20.930Z,10.17
2019-05-22T17:54:53.035Z,11.70
2019-05-22T17:57:23.140Z,11.70
2019-05-22T17:59:53.630Z,11.23
2019-05-22T18:02:24.661Z,11.03
2019-05-22T18:04:54.482Z,8.80
2019-05-22T18:07:24.831Z,7.90
2019-05-22T18:09:55.387Z,6.30
2019-05-22T18:12:25.676Z,6.30
2019-05-22T18:14:55.226Z,7.37
2019-05-22T18:17:25.812Z,7.73
2019-05-22T18:19:56.403Z,6.10
2019-05-22T18:22:26.707Z,5.93
2019-05-22T18:24:56.647Z,6.47
2019-05-22T18:27:26.579Z,6.13
2019-05-22T18:29:55.982Z,6.13
2019-05-22T18:32:25.488Z,5.63
2019-05-22T18:34:55.021Z,6.23
2019-05-22T18:37:24.388Z,6.63
2019-05-22T18:39:53.917Z,6.43
2019-05-22T18:42:24.151Z,6.17
2019-05-22T18:44:53.618Z,7.97
2019-05-22T18:47:23.704Z,6.57
2019-05-22T18:49:53.524Z,7.77
2019-05-22T18:52:38.277Z,6.47
2019-05-22T18:54:54.058Z,6.47
2019-05-22T18:57:23.517Z,6.20
2019-05-22T19:00:00.246Z,7.93
2019-05-22T19:02:25.157Z,7.07
2019-05-22T19:04:54.950Z,7.10
2019-05-22T19:07:24.469Z,9.57
2019-05-22T19:09:53.837Z,6.27
2019-05-22T19:12:23.971Z,8.57
2019-05-22T19:14:53.390Z,7.47
2019-05-22T19:17:22.783Z,7.97
2019-05-22T19:19:52.282Z,6.73
2019-05-22T19:22:22.068Z,8.47
2019-05-22T19:24:51.431Z,6.47
2019-05-22T19:27:21.161Z,7.00
2019-05-22T19:29:50.532Z,6.70
2019-05-22T19:32:20.236Z,6.50
2019-05-22T19:34:49.705Z,7.27
2019-05-22T19:37:19.223Z,6.43
2019-05-22T19:39:48.653Z,8.93
2019-05-22T19:42:18.407Z,10.63
2019-05-22T19:44:48.118Z,8.27
2019-05-22T19:47:18.429Z,7.50
2019-05-22T19:49:47.913Z,7.97
2019-05-22T19:52:22.327Z,7.07
2019-05-22T19:54:50.194Z,7.60
2019-05-22T19:57:19.820Z,9.23
2019-05-22T19:59:49.185Z,10.07
2019-05-22T20:02:18.613Z,6.87
2019-05-22T20:04:48.420Z,6.77
2019-05-22T20:07:18.538Z,11.47
2019-05-22T20:09:48.245Z,8.03
2019-05-22T20:12:19.160Z,8.67
2019-05-22T20:14:48.710Z,13.00
2019-05-22T20:17:18.207Z,7.37
2019-05-22T20:19:50.932Z,7.83
2019-05-22T20:22:21.074Z,8.30
2019-05-22T20:24:50.438Z,8.97
2019-05-22T20:27:20.179Z,9.08
2019-05-22T20:29:49.725Z,9.30
2019-05-22T20:32:21.957Z,8.90
2019-05-22T20:34:51.555Z,7.27
2019-05-22T20:37:21.402Z,8.50
2019-05-22T20:39:50.928Z,9.50
2019-05-22T20:42:20.386Z,6.97
2019-05-22T20:44:49.819Z,8.63
2019-05-22T20:47:24.318Z,10.27
2019-05-22T20:49:55.017Z,8.90
2019-05-22T20:52:27.417Z,9.67
2019-05-22T20:54:57.684Z,8.77
2019-05-22T20:57:29.934Z,7.47
2019-05-22T20:59:59.543Z,6.53
2019-05-22T21:02:31.111Z,8.00
2019-05-22T21:05:01.432Z,7.93
2019-05-22T21:07:34.838Z,8.00
2019-05-22T21:10:07.888Z,7.03
2019-05-22T21:12:37.654Z,9.27
2019-05-22T21:15:08.602Z,12.17
2019-05-22T21:17:37.985Z,9.23
2019-05-22T21:20:12.297Z,7.37
2019-05-22T21:22:42.573Z,8.00
2019-05-22T21:25:13.611Z,6.67
2019-05-22T21:27:43.505Z,9.77
2019-05-22T21:30:15.002Z,6.57
2019-05-22T21:32:45.727Z,7.33
2019-05-22T21:35:16.970Z,8.23
2019-05-22T21:37:46.622Z,10.27
2019-05-22T21:40:19.693Z,9.60
2019-05-22T21:42:51.209Z,7.23
2019-05-22T21:45:21.589Z,7.13
2019-05-22T21:47:51.310Z,8.40
2019-05-22T21:50:21.009Z,7.30
2019-05-22T21:52:50.424Z,6.67
2019-05-22T21:55:23.783Z,8.70
2019-05-22T21:57:54.448Z,8.70
2019-05-22T22:00:53.080Z,10.67
2019-05-22T22:03:37.171Z,8.20
2019-05-22T22:06:07.092Z,7.73
2019-05-22T22:08:37.861Z,12.97
2019-05-22T22:11:08.904Z,9.60
2019-05-22T22:13:39.594Z,10.57
2019-05-22T22:16:09.857Z,9.53
2019-05-22T22:18:40.873Z,9.27
2019-05-22T22:21:11.241Z,6.80
2019-05-22T22:23:44.410Z,6.70
2019-05-22T22:26:25.257Z,8.47
2019-05-22T22:28:44.568Z,8.20
2019-05-22T22:31:15.844Z,8.53
2019-05-22T22:33:49.880Z,8.23
2019-05-22T22:36:20.768Z,6.73
2019-05-22T22:38:51.829Z,8.90
2019-05-22T22:41:22.506Z,10.10
2019-05-22T22:43:52.789Z,9.77
2019-05-22T22:46:40.010Z,8.67
2019-05-22T22:49:15.193Z,8.57
2019-05-22T22:51:45.806Z,7.97
2019-05-22T22:54:15.304Z,8.73
2019-05-22T22:56:45.753Z,10.53
2019-05-22T22:59:15.686Z,9.90
2019-05-22T23:01:51.640Z,9.30
2019-05-22T23:04:24.716Z,10.83
2019-05-22T23:06:58.898Z,9.40
2019-05-22T23:09:29.272Z,11.00
2019-05-22T23:12:00.437Z,9.77
2019-05-22T23:14:32.777Z,8.30
2019-05-22T23:17:03.649Z,7.33
2019-05-22T23:19:38.990Z,8.43
2019-05-22T23:22:08.409Z,9.13
2019-05-22T23:24:40.554Z,9.87
2019-05-22T23:27:13.207Z,8.20
2019-05-22T23:29:43.001Z,8.77
2019-05-22T23:32:14.576Z,7.50
2019-05-22T23:34:45.315Z,8.60
2019-05-22T23:37:15.214Z,8.90
2019-05-22T23:39:47.246Z,8.10
2019-05-22T23:42:21.263Z,7.67
2019-05-22T23:44:53.911Z,12.40
2019-05-22T23:47:24.010Z,8.43
2019-05-22T23:49:54.467Z,10.27
2019-05-22T23:52:23.969Z,10.07
2019-05-22T23:54:53.742Z,10.30
2019-05-22T23:57:24.413Z,10.47
2019-05-22T23:59:58.740Z,6.90
